createdAt,value
2024-01-15T00:00:29.974Z,97335.38
2024-01-15T00:03:38.690Z,97328.63
2024-01-15T00:06:46.112Z,97323.22
2024-01-15T00:09:51.287Z,97319.13
2024-01-15T00:12:55.100Z,97314.09
2024-01-15T00:16:01.323Z,97303.97
2024-01-15T00:19:06.066Z,97313.41
2024-01-15T00:22:10.040Z,97296.69
2024-01-15T00:25:18.950Z,97300.28
2024-01-15T00:28:23.089Z,97306.81
2024-01-15T00:31:26.794Z,97306.78
2024-01-15T00:34:30.684Z,97309.78
2024-01-15T00:37:34.917Z,97304.91
2024-01-15T00:40:40.298Z,97290.72
2024-01-15T00:43:45.180Z,97291.03
2024-01-15T00:46:49.232Z,97292.00
2024-01-15T00:49:54.900Z,97281.91
2024-01-15T00:52:58.578Z,97289.66
2024-01-15T00:56:05.737Z,97286.91
2024-01-15T00:59:11.555Z,97287.63
2024-01-15T01:02:15.286Z,97286.03
2024-01-15T01:05:19.149Z,97281.75
2024-01-15T01:08:24.338Z,97283.56
2024-01-15T01:11:29.440Z,97275.84
2024-01-15T01:14:34.755Z,97272.06
2024-01-15T01:17:38.687Z,97272.19
2024-01-15T01:20:42.902Z,97267.63
2024-01-15T01:23:46.838Z,97265.31
2024-01-15T01:26:53.099Z,97260.44
2024-01-15T01:29:57.434Z,97248.81
2024-01-15T01:33:02.999Z,97234.94
2024-01-15T01:36:10.950Z,97247.16
2024-01-15T01:39:20.540Z,97248.88
2024-01-15T01:42:28.336Z,97240.13
2024-01-15T01:45:34.734Z,97234.59
2024-01-15T01:48:39.206Z,97238.44
2024-01-15T01:51:43.116Z,97229.25
2024-01-15T01:54:50.028Z,97229.28
2024-01-15T01:57:59.596Z,97227.81
2024-01-15T02:01:03.765Z,97228.41
2024-01-15T02:04:08.579Z,97229.88
2024-01-15T02:07:12.543Z,97216.50
2024-01-15T02:10:16.697Z,97219.03
2024-01-15T02:13:26.543Z,97220.34
2024-01-15T02:16:31.945Z,97210.47
2024-01-15T02:19:41.000Z,97211.91
2024-01-15T02:22:44.746Z,97208.09
2024-01-15T02:25:50.273Z,97208.81
2024-01-15T02:28:54.796Z,97215.50
2024-01-15T02:31:59.886Z,97215.38
2024-01-15T02:35:03.706Z,97214.31
2024-01-15T02:38:08.550Z,97214.22
2024-01-15T02:41:17.219Z,97217.13
2024-01-15T02:44:21.026Z,97218.41
2024-01-15T02:47:27.836Z,97215.06
2024-01-15T02:50:31.641Z,97214.66
2024-01-15T02:53:35.390Z,97207.78
2024-01-15T02:56:40.809Z,97206.06
2024-01-15T02:59:44.429Z,97214.16
2024-01-15T03:02:49.189Z,97207.06
2024-01-15T03:05:55.611Z,97203.44
2024-01-15T03:08:59.473Z,97200.00
2024-01-15T03:12:05.948Z,97196.25
2024-01-15T03:15:10.123Z,97196.16
2024-01-15T03:18:13.860Z,97193.75
2024-01-15T03:21:17.648Z,97198.00
2024-01-15T03:24:21.747Z,97191.06
2024-01-15T03:27:29.649Z,97194.66
2024-01-15T03:30:33.155Z,97190.81
2024-01-15T03:33:37.261Z,97186.44
2024-01-15T03:36:43.560Z,97195.50
2024-01-15T03:39:55.788Z,97176.69
2024-01-15T03:43:00.956Z,97189.06
2024-01-15T03:46:06.341Z,97180.94
2024-01-15T03:49:10.136Z,97172.84
2024-01-15T03:52:14.465Z,97179.59
2024-01-15T03:55:18.384Z,97177.88
2024-01-15T03:58:26.621Z,97172.63
2024-01-15T04:01:33.113Z,97178.94
2024-01-15T04:04:37.192Z,97173.69
2024-01-15T04:07:40.997Z,97173.31
2024-01-15T04:10:44.698Z,97163.22
2024-01-15T04:13:49.822Z,97174.25
2024-01-15T04:16:53.576Z,97173.06
2024-01-15T04:19:57.499Z,97175.97
2024-01-15T04:23:01.266Z,97153.66
2024-01-15T04:26:05.080Z,97162.28
2024-01-15T04:29:10.277Z,97154.19
2024-01-15T04:32:13.998Z,97151.19
2024-01-15T04:35:17.988Z,97153.56
2024-01-15T04:38:21.664Z,97157.66
2024-01-15T04:41:25.465Z,97153.47
2024-01-15T04:44:30.763Z,97161.59
2024-01-15T04:47:34.489Z,97160.34
2024-01-15T04:50:38.185Z,97149.13
2024-01-15T04:53:41.871Z,97161.78
2024-01-15T04:56:45.732Z,97158.09
2024-01-15T04:59:50.883Z,97158.69
2024-01-15T05:02:54.661Z,97160.19
2024-01-15T05:05:58.396Z,97156.91
2024-01-15T05:09:02.151Z,97150.84
2024-01-15T05:12:06.675Z,97151.22
2024-01-15T05:15:12.564Z,97152.81
2024-01-15T05:18:16.540Z,97159.94
2024-01-15T05:21:20.346Z,97155.63
2024-01-15T05:24:24.152Z,97149.84
2024-01-15T05:27:27.946Z,97143.25
2024-01-15T05:30:33.254Z,97153.41
2024-01-15T05:33:37.048Z,97152.00
2024-01-15T05:36:41.384Z,97148.69
2024-01-15T05:39:45.221Z,97140.88
2024-01-15T05:42:49.093Z,97142.94
2024-01-15T05:45:54.282Z,97151.53
2024-01-15T05:48:58.267Z,97145.28
2024-01-15T05:52:02.070Z,97145.88
2024-01-15T05:55:06.258Z,97144.09
2024-01-15T05:58:10.087Z,97137.72
2024-01-15T06:01:15.327Z,97145.16
2024-01-15T06:04:19.297Z,97140.63
2024-01-15T06:07:23.988Z,97131.59
2024-01-15T06:10:27.631Z,97145.38
2024-01-15T06:13:31.306Z,97145.75
2024-01-15T06:16:36.332Z,97156.97
2024-01-15T06:19:40.220Z,97140.22
2024-01-15T06:22:44.099Z,97129.25
2024-01-15T06:25:47.860Z,97151.31
2024-01-15T06:28:51.620Z,97141.41
2024-01-15T06:31:56.824Z,97150.09
2024-01-15T06:35:00.561Z,97140.69
2024-01-15T06:38:04.437Z,97142.44
2024-01-15T06:41:08.198Z,97151.53
2024-01-15T06:44:12.202Z,97146.53
2024-01-15T06:47:18.602Z,97152.22
2024-01-15T06:50:22.507Z,97149.22
2024-01-15T06:53:26.236Z,97153.97
2024-01-15T06:56:30.018Z,97144.34
2024-01-15T06:59:33.655Z,97156.47
2024-01-15T07:02:38.893Z,97152.59
2024-01-15T07:05:42.677Z,97150.56
2024-01-15T07:08:46.368Z,97146.16
2024-01-15T07:11:50.140Z,97140.69
2024-01-15T07:14:53.912Z,97146.94
2024-01-15T07:17:59.025Z,97142.72
2024-01-15T07:21:03.992Z,97140.50
2024-01-15T07:24:07.732Z,97153.69
2024-01-15T07:27:11.567Z,97144.03
2024-01-15T07:30:16.639Z,97146.66
2024-01-15T07:33:22.073Z,97148.16
2024-01-15T07:36:25.848Z,97132.50
2024-01-15T07:39:30.205Z,97138.22
2024-01-15T07:42:33.945Z,97132.94
2024-01-15T07:45:38.020Z,97142.75
2024-01-15T07:48:43.370Z,97153.16
2024-01-15T07:51:47.222Z,97144.06
2024-01-15T07:54:51.006Z,97150.00
2024-01-15T07:58:06.777Z,97139.81
2024-01-15T08:01:19.066Z,97145.69
2024-01-15T08:04:24.691Z,97146.25
2024-01-15T08:07:28.876Z,97149.06
2024-01-15T08:10:32.512Z,97147.66
2024-01-15T08:13:36.161Z,97146.50
2024-01-15T08:16:40.259Z,97147.66
2024-01-15T08:19:45.679Z,97148.81
2024-01-15T08:22:49.580Z,97152.66
2024-01-15T08:25:53.551Z,97151.34
2024-01-15T08:28:57.461Z,97149.22
2024-01-15T08:32:01.351Z,97140.38
2024-01-15T08:35:07.478Z,97144.88
2024-01-15T08:38:11.342Z,97130.38
2024-01-15T08:41:15.795Z,97145.13
2024-01-15T08:44:19.564Z,97153.53
2024-01-15T08:47:23.600Z,97154.03
2024-01-15T08:50:28.782Z,97152.91
2024-01-15T08:53:32.455Z,97160.06
2024-01-15T08:56:36.155Z,97157.25
2024-01-15T08:59:39.961Z,97145.91
2024-01-15T09:02:44.243Z,97167.59
2024-01-15T09:05:51.343Z,97162.75
2024-01-15T09:08:55.062Z,97155.94
2024-01-15T09:11:58.820Z,97160.44
2024-01-15T09:15:05.510Z,97159.97
2024-01-15T09:18:09.576Z,97152.19
2024-01-15T09:21:14.836Z,97158.78
2024-01-15T09:24:18.524Z,97149.31
2024-01-15T09:27:31.116Z,97154.31
2024-01-15T09:30:34.831Z,97156.56
2024-01-15T09:33:38.635Z,97149.28
2024-01-15T09:36:44.636Z,97152.50
2024-01-15T09:39:49.564Z,97145.34
2024-01-15T09:42:54.739Z,97142.00
2024-01-15T09:45:59.843Z,97151.25
2024-01-15T09:49:04.044Z,97145.75
2024-01-15T09:52:12.222Z,97149.72
2024-01-15T09:55:17.645Z,97141.91
2024-01-15T09:58:23.015Z,97139.81
2024-01-15T10:01:27.844Z,97149.34
2024-01-15T10:04:31.915Z,97149.91
2024-01-15T10:07:38.472Z,97149.56
2024-01-15T10:10:42.187Z,97149.38
2024-01-15T10:13:47.716Z,97142.66
2024-01-15T10:16:52.360Z,97138.00
2024-01-15T10:19:56.112Z,97123.44
2024-01-15T10:23:01.586Z,97143.84
2024-01-15T10:26:05.996Z,97138.69
2024-01-15T10:29:09.639Z,97146.63
2024-01-15T10:32:14.163Z,97142.09
2024-01-15T10:35:17.792Z,97144.06
2024-01-15T10:38:23.415Z,97145.56
2024-01-15T10:41:27.133Z,97156.16
2024-01-15T10:44:31.337Z,97150.72
2024-01-15T10:47:35.198Z,97145.69
2024-01-15T10:50:38.934Z,97146.16
2024-01-15T10:53:45.143Z,97136.53
2024-01-15T10:56:49.635Z,97130.84
2024-01-15T10:59:53.298Z,97136.63
2024-01-15T11:02:57.265Z,97150.38
2024-01-15T11:06:02.541Z,97139.78
2024-01-15T11:09:09.121Z,97138.38
2024-01-15T11:12:14.489Z,97142.84
2024-01-15T11:15:22.989Z,97139.63
2024-01-15T11:18:28.962Z,97140.47
2024-01-15T11:21:32.786Z,97136.09
2024-01-15T11:24:40.498Z,97140.81
2024-01-15T11:27:45.297Z,97134.03
2024-01-15T11:30:50.477Z,97125.38
2024-01-15T11:33:54.380Z,97119.59
2024-01-15T11:37:05.169Z,97128.97
2024-01-15T11:40:13.299Z,97115.56
2024-01-15T11:43:21.785Z,97112.16
2024-01-15T11:46:33.490Z,97121.72
2024-01-15T11:50:02.756Z,97125.78
2024-01-15T11:53:19.265Z,97124.72
2024-01-15T11:56:25.817Z,97127.97
2024-01-15T11:59:29.570Z,97125.00
2024-01-15T12:02:33.287Z,97121.03
2024-01-15T12:05:40.027Z,97116.63
2024-01-15T12:08:43.905Z,97124.59
2024-01-15T12:11:57.091Z,97121.50
2024-01-15T12:15:01.110Z,97128.31
2024-01-15T12:18:05.764Z,97133.00
2024-01-15T12:21:09.815Z,97128.34
2024-01-15T12:24:13.588Z,97132.22
2024-01-15T12:27:19.216Z,97130.91
2024-01-15T12:30:23.109Z,97128.91
2024-01-15T12:33:26.914Z,97133.00
2024-01-15T12:36:33.456Z,97134.84
2024-01-15T12:39:37.419Z,97133.25
2024-01-15T12:42:44.178Z,97134.44
2024-01-15T12:45:48.395Z,97129.72
2024-01-15T12:48:52.259Z,97119.72
2024-01-15T12:51:56.261Z,97128.75
2024-01-15T12:54:59.952Z,97135.44
2024-01-15T12:58:05.208Z,97124.19
2024-01-15T13:01:09.078Z,97129.38
2024-01-15T13:04:13.027Z,97123.19
2024-01-15T13:07:16.768Z,97126.78
2024-01-15T13:10:20.511Z,97136.72
2024-01-15T13:13:25.627Z,97135.72
2024-01-15T13:16:30.368Z,97133.94
2024-01-15T13:19:34.298Z,97130.78
2024-01-15T13:22:40.488Z,97130.75
2024-01-15T13:25:44.175Z,97139.25
2024-01-15T13:28:50.051Z,97138.97
2024-01-15T13:31:53.767Z,97131.41
2024-01-15T13:34:57.992Z,97142.16
2024-01-15T13:38:01.778Z,97146.94
2024-01-15T13:41:05.645Z,97137.63
2024-01-15T13:44:11.841Z,97146.78
2024-01-15T13:47:15.643Z,97146.69
2024-01-15T13:50:19.671Z,97147.53
2024-01-15T13:53:23.277Z,97151.97
2024-01-15T13:56:31.893Z,97153.22
2024-01-15T13:59:37.052Z,97143.66
2024-01-15T14:02:40.749Z,97144.56
2024-01-15T14:05:45.716Z,97141.09
2024-01-15T14:08:49.375Z,97142.09
2024-01-15T14:11:53.140Z,97144.56
2024-01-15T14:14:58.248Z,97150.22
2024-01-15T14:18:02.398Z,97148.72
2024-01-15T14:21:06.736Z,97141.75
2024-01-15T14:24:10.404Z,97142.56
2024-01-15T14:27:14.030Z,97143.19
2024-01-15T14:30:19.546Z,97131.16
2024-01-15T14:33:23.540Z,97135.72
2024-01-15T14:36:27.455Z,97135.09
2024-01-15T14:39:33.224Z,97129.13
2024-01-15T14:42:37.937Z,97129.47
2024-01-15T14:45:44.299Z,97125.44
2024-01-15T14:48:48.538Z,97132.19
2024-01-15T14:51:52.805Z,97125.38
2024-01-15T14:54:56.626Z,97133.78
2024-01-15T14:58:00.488Z,97121.91
2024-01-15T15:01:06.462Z,97127.69
2024-01-15T15:04:11.740Z,97120.75
2024-01-15T15:07:15.569Z,97125.03
2024-01-15T15:10:19.708Z,97126.47
2024-01-15T15:13:33.984Z,97123.34
2024-01-15T15:16:47.962Z,97126.97
2024-01-15T15:19:54.766Z,97125.50
2024-01-15T15:22:58.720Z,97130.38
2024-01-15T15:26:02.430Z,97123.81
2024-01-15T15:29:06.212Z,97122.75
2024-01-15T15:32:14.054Z,97118.63
2024-01-15T15:35:17.870Z,97124.03
2024-01-15T15:38:22.254Z,97123.38
2024-01-15T15:41:27.125Z,97118.63
2024-01-15T15:44:30.938Z,97118.31
2024-01-15T15:47:36.192Z,97125.63
2024-01-15T15:50:40.233Z,97131.00
2024-01-15T15:53:44.036Z,97129.50
2024-01-15T15:56:50.942Z,97121.31
2024-01-15T15:59:58.569Z,97113.78
2024-01-15T16:03:03.806Z,97122.59
2024-01-15T16:06:07.900Z,97121.69
2024-01-15T16:09:12.517Z,97119.75
2024-01-15T16:12:16.455Z,97116.97
2024-01-15T16:15:22.435Z,97108.75
2024-01-15T16:23:20.940Z,97103.41
2024-01-15T16:23:38.680Z,97121.44
2024-01-15T16:25:21.726Z,97114.09
2024-01-15T16:28:26.772Z,97126.03
2024-01-15T16:31:32.940Z,97109.69
2024-01-15T16:34:38.232Z,97124.78
2024-01-15T16:37:44.683Z,97114.13
2024-01-15T16:40:48.921Z,97109.47
2024-01-15T16:43:52.636Z,97110.41
2024-01-15T16:47:06.715Z,97101.53
2024-01-15T16:50:13.642Z,97110.06
2024-01-15T16:53:17.426Z,97100.44
2024-01-15T16:56:21.432Z,97095.31
2024-01-15T16:59:27.741Z,97088.38
2024-01-15T17:02:31.733Z,97094.72
2024-01-15T17:05:37.550Z,97091.94
2024-01-15T17:08:41.622Z,97091.84
2024-01-15T17:11:46.990Z,97087.94
2024-01-15T17:14:51.150Z,97094.78
2024-01-15T17:17:55.500Z,97092.97
2024-01-15T17:21:01.280Z,97094.47
2024-01-15T17:24:06.742Z,97084.13
2024-01-15T17:27:10.488Z,97089.34
2024-01-15T17:30:14.587Z,97078.81
2024-01-15T17:33:18.472Z,97083.25
2024-01-15T17:36:24.073Z,97090.84
2024-01-15T17:39:28.237Z,97085.06
2024-01-15T17:42:34.501Z,97086.09
2024-01-15T17:45:39.531Z,97093.63
2024-01-15T17:48:43.776Z,97079.72
2024-01-15T17:51:51.815Z,97074.81
2024-01-15T17:54:55.520Z,97087.19
2024-01-15T17:58:00.167Z,97089.50
2024-01-15T18:01:04.101Z,97085.09
2024-01-15T18:04:08.750Z,97074.38
2024-01-15T18:07:16.701Z,97067.56
2024-01-15T18:10:21.091Z,97071.28
2024-01-15T18:13:24.932Z,97072.94
2024-01-15T18:16:28.757Z,97070.53
2024-01-15T18:19:32.732Z,97060.19
2024-01-15T18:22:38.285Z,97065.63
2024-01-15T18:25:44.674Z,97061.38
2024-01-15T18:28:49.786Z,97056.81
2024-01-15T18:31:53.857Z,97057.75
2024-01-15T18:34:57.997Z,97068.16
2024-01-15T18:38:03.403Z,97057.06
2024-01-15T18:41:07.428Z,97048.91
2024-01-15T18:44:11.651Z,97039.59
2024-01-15T18:47:16.283Z,97058.06
2024-01-15T18:50:20.381Z,97041.66
2024-01-15T18:53:31.485Z,97031.56
2024-01-15T18:56:37.330Z,97041.38
2024-01-15T18:59:42.168Z,97040.84
2024-01-15T19:02:51.040Z,97032.00
2024-01-15T19:05:55.673Z,97039.09
2024-01-15T19:09:00.807Z,97031.47
2024-01-15T19:12:05.524Z,97028.06
2024-01-15T19:15:10.395Z,97025.03
2024-01-15T19:18:15.349Z,97028.19
2024-01-15T19:21:22.899Z,97035.81
2024-01-15T19:24:30.715Z,97027.13
2024-01-15T19:27:34.904Z,97020.34
2024-01-15T19:30:45.774Z,97028.19
2024-01-15T19:33:55.199Z,97015.63
2024-01-15T19:36:58.964Z,97005.69
2024-01-15T19:40:04.279Z,97004.88
2024-01-15T19:43:08.940Z,97006.00
2024-01-15T19:46:12.965Z,96999.06
2024-01-15T19:49:18.746Z,97003.50
2024-01-15T19:52:22.446Z,96995.63
2024-01-15T19:55:33.050Z,96987.72
2024-01-15T19:58:40.292Z,96992.47
2024-01-15T20:01:47.970Z,96991.78
2024-01-15T20:04:51.684Z,96994.53
2024-01-15T20:07:55.534Z,96974.34
2024-01-15T20:11:01.169Z,96978.97
2024-01-15T20:14:08.313Z,96971.09
2024-01-15T20:17:12.783Z,96964.38
2024-01-15T20:20:18.004Z,96972.56
2024-01-15T20:23:21.995Z,96974.91
2024-01-15T20:26:27.145Z,96975.16
2024-01-15T20:29:32.023Z,96966.97
2024-01-15T20:32:35.818Z,96976.97
2024-01-15T20:35:39.601Z,96975.84
2024-01-15T20:38:45.775Z,96972.16
2024-01-15T20:41:51.656Z,96972.31
2024-01-15T20:44:55.660Z,96978.59
2024-01-15T20:48:01.518Z,96976.81
2024-01-15T20:51:06.341Z,96972.84
2024-01-15T20:54:10.260Z,96976.81
2024-01-15T20:57:15.389Z,96968.91
2024-01-15T21:00:19.997Z,96968.34
2024-01-15T21:03:23.735Z,96979.53
2024-01-15T21:06:28.328Z,96966.44
2024-01-15T21:09:32.427Z,96975.16
2024-01-15T21:12:38.972Z,96976.25
2024-01-15T21:15:45.619Z,96969.81
2024-01-15T21:18:52.954Z,96965.47
2024-01-15T21:21:56.619Z,96974.91
2024-01-15T21:25:00.597Z,96970.94
2024-01-15T21:28:08.537Z,96963.84
2024-01-15T21:31:12.469Z,96975.31
2024-01-15T21:34:17.152Z,96957.72
2024-01-15T21:37:20.836Z,96955.25
2024-01-15T21:40:27.476Z,96959.88
2024-01-15T21:43:35.320Z,96958.78
2024-01-15T21:46:39.178Z,96974.41
2024-01-15T21:49:44.136Z,96960.63
2024-01-15T21:52:47.822Z,96968.97
2024-01-15T21:55:52.898Z,96952.91
2024-01-15T21:58:58.926Z,96956.44
2024-01-15T22:02:09.659Z,96955.94
2024-01-15T22:05:19.479Z,96960.94
2024-01-15T22:08:24.880Z,96962.19
2024-01-15T22:11:30.232Z,96949.31
2024-01-15T22:14:38.334Z,96962.31
2024-01-15T22:17:44.294Z,96965.31
2024-01-15T22:20:48.141Z,96962.63
2024-01-15T22:23:51.843Z,96960.13
2024-01-15T22:26:55.691Z,96947.19
2024-01-15T22:30:00.835Z,96957.28
2024-01-15T22:33:04.711Z,96937.09
2024-01-15T22:36:08.998Z,96955.53
2024-01-15T22:39:12.672Z,96952.69
2024-01-15T22:42:16.328Z,96947.88
2024-01-15T22:45:21.609Z,96961.31
2024-01-15T22:48:25.818Z,96951.28
2024-01-15T22:51:29.626Z,96959.28
2024-01-15T22:54:33.293Z,96952.19
2024-01-15T22:57:37.536Z,96953.19
2024-01-15T23:00:45.047Z,96946.56
2024-01-15T23:03:49.384Z,96954.50
2024-01-15T23:06:53.062Z,96944.31
2024-01-15T23:09:56.653Z,96938.50
2024-01-15T23:13:00.537Z,96951.72
2024-01-15T23:16:05.731Z,96945.06
2024-01-15T23:19:09.477Z,96949.75
2024-01-15T23:22:13.538Z,96949.09
2024-01-15T23:25:17.221Z,96954.44
2024-01-15T23:28:22.508Z,96945.19
2024-01-15T23:31:27.662Z,96953.28
2024-01-15T23:34:31.347Z,96958.34
2024-01-15T23:37:35.075Z,96949.09
2024-01-15T23:40:38.694Z,96958.81
2024-01-15T23:43:42.291Z,96945.28
2024-01-15T23:46:47.348Z,96943.47
2024-01-15T23:49:50.968Z,96956.56
2024-01-15T23:52:54.633Z,96959.22
2024-01-15T23:55:58.254Z,96960.03
2024-01-15T23:59:02.023Z,96960.84
